createdAt,value
2022-08-21T00:02:25.838Z,23.1
2022-08-21T00:04:58.761Z,23
2022-08-21T00:07:31.205Z,23
2022-08-21T00:10:04.338Z,23
2022-08-21T00:12:37.132Z,23
2022-08-21T00:15:14.490Z,22.9
2022-08-21T00:17:47.222Z,23
2022-08-21T00:20:19.501Z,23
2022-08-21T00:22:52.258Z,23
2022-08-21T00:25:27.039Z,22.9
2022-08-21T00:27:58.615Z,22.9
2022-08-21T00:30:32.614Z,22.8
2022-08-21T00:33:05.405Z,22.8
2022-08-21T00:35:39.197Z,22.9
2022-08-21T00:38:11.991Z,22.9
2022-08-21T00:40:44.717Z,22.9
2022-08-21T00:43:17.155Z,22.9
2022-08-21T00:45:51.168Z,22.8
2022-08-21T00:48:23.538Z,22.8
2022-08-21T00:50:58.531Z,22.7
2022-08-21T00:53:30.988Z,22.7
2022-08-21T00:56:06.290Z,22.7
2022-08-21T00:58:44.440Z,22.7
2022-08-21T01:01:20.088Z,22.7
2022-08-21T01:03:51.467Z,22.6
2022-08-21T01:06:21.727Z,22.4
2022-08-21T01:08:55.039Z,22.3
2022-08-21T01:11:27.634Z,22.3
2022-08-21T01:13:58.605Z,22.1
2022-08-21T01:16:31.911Z,22.1
2022-08-21T01:19:04.292Z,22
2022-08-21T01:21:35.572Z,22
2022-08-21T01:24:08.131Z,21.9
2022-08-21T01:26:40.992Z,21.9
2022-08-21T01:29:13.493Z,21.8
2022-08-21T01:31:47.560Z,21.9
2022-08-21T01:34:20.637Z,21.9
2022-08-21T01:36:55.302Z,21.8
2022-08-21T01:39:27.981Z,21.9
2022-08-21T01:42:00.841Z,21.9
2022-08-21T01:44:33.509Z,21.9
2022-08-21T01:47:06.469Z,21.9
2022-08-21T01:49:39.139Z,21.8
2022-08-21T01:52:11.797Z,21.8
2022-08-21T01:54:55.604Z,21.8
2022-08-21T01:57:29.853Z,21.6
2022-08-21T02:00:01.181Z,21.6
2022-08-21T02:02:35.603Z,21.5
2022-08-21T02:05:08.427Z,21.5
2022-08-21T02:07:41.073Z,21.5
2022-08-21T02:10:13.767Z,21.4
2022-08-21T02:12:48.618Z,21.4
2022-08-21T02:15:21.559Z,21.4
2022-08-21T02:17:54.268Z,21.5
2022-08-21T02:20:26.625Z,21.5
2022-08-21T02:23:00.571Z,21.5
2022-08-21T02:25:36.081Z,21.5
2022-08-21T02:28:07.842Z,21.4
2022-08-21T02:30:40.673Z,21.4
2022-08-21T02:33:13.030Z,21.4
2022-08-21T02:35:45.707Z,21.4
2022-08-21T02:38:16.613Z,21.4
2022-08-21T02:40:52.096Z,21.4
2022-08-21T02:43:23.681Z,21.4
2022-08-21T02:45:59.718Z,21.4
2022-08-21T02:48:31.324Z,21.5
2022-08-21T02:51:04.305Z,21.5
2022-08-21T02:53:36.760Z,21.5
2022-08-21T02:56:09.464Z,21.5
2022-08-21T02:58:42.467Z,21.4
2022-08-21T03:01:15.087Z,21.3
2022-08-21T03:03:47.878Z,21.2
2022-08-21T03:06:23.387Z,21.3
2022-08-21T03:08:58.300Z,21.4
2022-08-21T03:11:31.390Z,21.3
2022-08-21T03:14:04.015Z,21.4
2022-08-21T03:16:36.674Z,21.5
2022-08-21T03:19:09.474Z,21.5
2022-08-21T03:21:41.853Z,21.5
2022-08-21T03:24:14.575Z,21.5
2022-08-21T03:26:52.274Z,21.4
2022-08-21T03:29:25.049Z,21.5
2022-08-21T03:31:58.047Z,21.5
2022-08-21T03:34:30.517Z,21.6
2022-08-21T03:37:03.084Z,21.5
2022-08-21T03:39:36.461Z,21.5
2022-08-21T03:42:09.007Z,21.6
2022-08-21T03:44:41.963Z,21.6
2022-08-21T03:47:14.482Z,21.5
2022-08-21T03:49:47.287Z,21.5
2022-08-21T03:52:20.133Z,21.6
2022-08-21T03:54:52.879Z,21.5
2022-08-21T03:57:27.835Z,21.4
2022-08-21T04:00:06.560Z,21.5
2022-08-21T04:02:39.488Z,21.5
2022-08-21T04:05:12.347Z,21.5
2022-08-21T04:07:46.624Z,21.6
2022-08-21T04:10:20.083Z,21.6
2022-08-21T04:12:52.929Z,21.6
2022-08-21T04:15:25.893Z,21.6
2022-08-21T04:18:01.529Z,21.6
2022-08-21T04:20:34.412Z,21.6
2022-08-21T04:23:07.141Z,21.5
2022-08-21T04:25:40.897Z,21.6
2022-08-21T04:28:14.515Z,21.6
2022-08-21T04:30:47.169Z,21.6
2022-08-21T04:33:20.446Z,21.7
2022-08-21T04:35:53.390Z,21.6
2022-08-21T04:38:36.455Z,21.7
2022-08-21T04:41:28.946Z,21.6
2022-08-21T04:43:59.917Z,21.6
2022-08-21T04:46:32.647Z,21.6
2022-08-21T04:49:07.140Z,21.7
2022-08-21T04:51:39.196Z,21.8
2022-08-21T04:54:11.963Z,21.7
2022-08-21T04:56:44.388Z,21.7
2022-08-21T04:59:17.345Z,21.7
2022-08-21T05:01:50.705Z,21.7
2022-08-21T05:04:24.171Z,21.7
2022-08-21T05:06:57.221Z,21.7
2022-08-21T05:09:30.032Z,21.7
2022-08-21T05:12:02.599Z,21.8
2022-08-21T05:14:35.371Z,21.7
2022-08-21T05:17:08.367Z,21.8
2022-08-21T05:19:41.113Z,21.9
2022-08-21T05:22:14.187Z,21.8
2022-08-21T05:24:46.991Z,21.7
2022-08-21T05:27:23.941Z,21.7
2022-08-21T05:30:03.186Z,21.7
2022-08-21T05:32:35.782Z,21.6
2022-08-21T05:35:12.225Z,21.8
2022-08-21T05:37:44.784Z,21.7
2022-08-21T05:40:24.625Z,21.7
2022-08-21T05:42:57.816Z,21.7
2022-08-21T05:45:44.825Z,21.7
2022-08-21T05:48:15.559Z,21.8
2022-08-21T05:50:49.428Z,21.8
2022-08-21T05:53:22.181Z,21.7
2022-08-21T05:55:54.830Z,21.8
2022-08-21T05:58:27.861Z,21.8
2022-08-21T06:01:00.583Z,21.8
2022-08-21T06:03:33.473Z,21.7
2022-08-21T06:06:06.103Z,21.9
2022-08-21T06:08:38.404Z,21.9
2022-08-21T06:11:10.487Z,22
2022-08-21T06:13:40.983Z,22
2022-08-21T06:16:16.744Z,22
2022-08-21T06:18:46.497Z,22
2022-08-21T06:21:17.316Z,22.1
2022-08-21T06:23:49.671Z,22.1
2022-08-21T06:26:22.566Z,22.1
2022-08-21T06:28:54.831Z,22.1
2022-08-21T06:31:29.169Z,22.1
2022-08-21T06:34:02.257Z,22
2022-08-21T06:36:43.025Z,22.1
2022-08-21T06:39:32.824Z,22.1
2022-08-21T06:42:10.853Z,22.1
2022-08-21T06:44:47.771Z,22.1
2022-08-21T06:47:21.003Z,22.1
2022-08-21T06:49:54.057Z,22.2
2022-08-21T06:52:29.401Z,22.2
2022-08-21T06:55:03.363Z,22.2
2022-08-21T06:57:38.827Z,22.1
2022-08-21T07:00:13.643Z,22
2022-08-21T07:02:48.299Z,21.9
2022-08-21T07:05:20.719Z,22
2022-08-21T07:07:54.357Z,22
2022-08-21T07:10:38.781Z,22
2022-08-21T07:13:17.481Z,22
2022-08-21T07:15:48.677Z,22.1
2022-08-21T07:18:21.200Z,22.2
2022-08-21T07:20:55.825Z,22.1
2022-08-21T07:23:29.529Z,22
2022-08-21T07:26:05.013Z,22.2
2022-08-21T07:28:36.976Z,22.3
2022-08-21T07:31:09.881Z,22.4
2022-08-21T07:33:44.702Z,22.4
2022-08-21T07:36:17.098Z,22.4
2022-08-21T07:38:53.543Z,22.5
2022-08-21T07:41:25.186Z,22.5
2022-08-21T07:43:55.433Z,22.4
2022-08-21T07:46:30.759Z,22.4
2022-08-21T07:49:03.145Z,22.3
2022-08-21T07:51:36.011Z,22.3
2022-08-21T07:54:08.003Z,22.3
2022-08-21T07:56:41.081Z,22.2
2022-08-21T07:59:13.995Z,22.2
2022-08-21T08:01:46.907Z,22.2
2022-08-21T08:04:26.919Z,22.3
2022-08-21T08:06:58.002Z,22.3
2022-08-21T08:09:31.639Z,22.2
2022-08-21T08:12:04.399Z,22.2
2022-08-21T08:14:41.050Z,22.1
2022-08-21T08:17:12.755Z,22.2
2022-08-21T08:19:45.665Z,22.1
2022-08-21T08:22:17.628Z,22.2
2022-08-21T08:24:50.237Z,22.3
2022-08-21T08:27:22.788Z,22.3
2022-08-21T08:29:57.073Z,22.4
2022-08-21T08:32:29.632Z,22.3
2022-08-21T08:35:00.513Z,22.2
2022-08-21T08:37:42.343Z,22.2
2022-08-21T08:40:48.551Z,22.2
2022-08-21T08:43:31.120Z,22.1
2022-08-21T08:46:11.189Z,22.1
2022-08-21T08:48:54.288Z,22.1
2022-08-21T08:51:24.538Z,22.2
2022-08-21T08:54:06.246Z,22.1
2022-08-21T08:56:54.746Z,22.1
2022-08-21T08:59:34.165Z,22.2
2022-08-21T09:02:09.772Z,22.2
2022-08-21T09:04:40.853Z,22.2
2022-08-21T09:07:13.504Z,22.3
2022-08-21T09:09:46.042Z,22.3
2022-08-21T09:12:19.964Z,22.3
2022-08-21T09:14:52.581Z,22.3
2022-08-21T09:17:25.413Z,22.3
2022-08-21T09:20:07.620Z,22.2
2022-08-21T09:22:38.178Z,22.3
2022-08-21T09:25:12.984Z,22.3
2022-08-21T09:27:46.370Z,22.4
2022-08-21T09:30:19.446Z,22.4
2022-08-21T09:32:52.903Z,22.5
2022-08-21T09:35:25.490Z,22.4
2022-08-21T09:38:01.004Z,22.5
2022-08-21T09:40:34.028Z,22.7
2022-08-21T09:43:09.362Z,22.8
2022-08-21T09:45:41.299Z,22.7
2022-08-21T09:48:13.694Z,22.6
2022-08-21T09:50:46.701Z,22.6
2022-08-21T09:53:24.364Z,22.6
2022-08-21T09:55:57.255Z,22.7
2022-08-21T09:58:29.694Z,22.8
2022-08-21T10:01:02.817Z,22.8
2022-08-21T10:03:35.513Z,22.8
2022-08-21T10:06:11.716Z,22.8
2022-08-21T10:08:43.323Z,22.6
2022-08-21T10:11:15.644Z,22.5
2022-08-21T10:13:46.405Z,22.5
2022-08-21T10:16:18.589Z,22.4
2022-08-21T10:18:50.487Z,22.5
2022-08-21T10:21:23.443Z,22.3
2022-08-21T10:23:56.040Z,22.3
2022-08-21T10:26:28.584Z,22.1
2022-08-21T10:29:00.603Z,21.9
2022-08-21T10:31:32.647Z,21.8
2022-08-21T10:34:05.045Z,21.5
2022-08-21T10:36:36.459Z,21.6
2022-08-21T10:39:37.127Z,21.6
2022-08-21T10:42:10.726Z,21.7
2022-08-21T10:44:45.208Z,21.7
2022-08-21T10:47:22.055Z,21.6
2022-08-21T10:49:54.195Z,21.9
2022-08-21T10:52:26.554Z,21.8
2022-08-21T10:54:58.856Z,21.7
2022-08-21T10:57:34.233Z,21.6
2022-08-21T11:00:06.867Z,21.7
2022-08-21T11:02:38.991Z,21.5
2022-08-21T11:05:11.000Z,21.4
2022-08-21T11:07:49.631Z,21.3
2022-08-21T11:10:20.990Z,21.4
2022-08-21T11:12:53.421Z,21.4
2022-08-21T11:15:30.615Z,21.5
2022-08-21T11:18:04.822Z,21.5
2022-08-21T11:20:36.860Z,21.5
2022-08-21T11:23:11.305Z,21.5
2022-08-21T11:25:43.352Z,21.6
2022-08-21T11:28:16.687Z,21.6
2022-08-21T11:30:47.768Z,21.6
2022-08-21T11:33:20.182Z,21.7
2022-08-21T11:35:56.029Z,21.8
2022-08-21T11:38:27.511Z,21.7
2022-08-21T11:41:03.710Z,21.8
2022-08-21T11:43:35.418Z,21.6
2022-08-21T11:46:08.346Z,21.7
2022-08-21T11:48:41.236Z,21.7
2022-08-21T11:51:15.859Z,21.7
2022-08-21T11:53:54.852Z,21.8
2022-08-21T11:56:25.993Z,21.8
2022-08-21T11:59:00.620Z,21.9
2022-08-21T12:01:37.789Z,21.9
2022-08-21T12:04:11.778Z,22
2022-08-21T12:06:44.919Z,22.1
2022-08-21T12:09:17.541Z,21.9
2022-08-21T12:11:53.217Z,21.9
2022-08-21T12:14:26.712Z,22
2022-08-21T12:17:00.504Z,22
2022-08-21T12:19:32.985Z,22.1
2022-08-21T12:22:05.766Z,22.1
2022-08-21T12:24:38.072Z,22.1
2022-08-21T12:27:10.647Z,22.1
2022-08-21T12:29:42.618Z,22.1
2022-08-21T12:32:19.732Z,22.2
2022-08-21T12:34:55.058Z,22.1
2022-08-21T12:37:25.961Z,22.2
2022-08-21T12:39:58.313Z,22.2
2022-08-21T12:42:30.825Z,22.3
2022-08-21T12:45:03.610Z,22.3
2022-08-21T12:47:36.010Z,22.3
2022-08-21T12:50:09.460Z,22.3
2022-08-21T12:52:41.559Z,22.3
2022-08-21T12:55:14.088Z,22.3
2022-08-21T12:57:46.849Z,22.2
2022-08-21T13:00:22.105Z,22.3
2022-08-21T13:02:55.704Z,22.2
2022-08-21T13:05:31.052Z,22.2
2022-08-21T13:08:03.203Z,22.1
2022-08-21T13:10:37.404Z,22.1
2022-08-21T13:13:14.638Z,22.1
2022-08-21T13:15:59.100Z,22.2
2022-08-21T13:18:39.025Z,22.4
2022-08-21T13:21:21.607Z,22.4
2022-08-21T13:24:07.708Z,22.4
2022-08-21T13:27:22.877Z,22.5
2022-08-21T13:29:55.505Z,22.6
2022-08-21T13:32:31.682Z,22.6
2022-08-21T13:35:02.786Z,22.5
2022-08-21T13:37:34.889Z,22.5
2022-08-21T13:40:09.224Z,22.5
2022-08-21T13:42:41.153Z,22.4
2022-08-21T13:45:13.942Z,22.3
2022-08-21T13:47:47.828Z,22.3
2022-08-21T13:50:28.688Z,22.2
2022-08-21T13:53:01.746Z,22.3
2022-08-21T13:55:38.536Z,22.3
2022-08-21T13:58:11.550Z,22.3
2022-08-21T14:00:44.143Z,22.2
2022-08-21T14:03:17.811Z,22.3
2022-08-21T14:05:49.994Z,22.3
2022-08-21T14:08:31.569Z,22.3
2022-08-21T14:11:02.883Z,22.3
2022-08-21T14:13:39.781Z,22.3
2022-08-21T14:16:12.614Z,22.3
2022-08-21T14:18:58.429Z,22.2
2022-08-21T14:21:43.739Z,22.2
2022-08-21T14:24:23.618Z,22.1
2022-08-21T14:26:54.348Z,22.1
2022-08-21T14:29:26.630Z,22.1
2022-08-21T14:32:26.352Z,22.2
2022-08-21T14:34:59.967Z,22.1
2022-08-21T14:37:31.444Z,22.1
2022-08-21T14:40:04.250Z,22.1
2022-08-21T14:42:40.399Z,22
2022-08-21T14:45:14.213Z,22
2022-08-21T14:47:49.120Z,22
2022-08-21T14:50:21.857Z,22
2022-08-21T14:53:10.847Z,21.8
2022-08-21T14:55:43.011Z,21.8
2022-08-21T14:58:15.605Z,21.9
2022-08-21T15:00:48.730Z,21.9
2022-08-21T15:03:20.871Z,21.9
2022-08-21T15:05:55.013Z,21.8
2022-08-21T15:08:27.108Z,21.9
2022-08-21T15:11:43.390Z,21.8
2022-08-21T15:14:13.656Z,21.9
2022-08-21T15:16:44.681Z,21.9
2022-08-21T15:19:18.751Z,21.8
2022-08-21T15:21:52.044Z,21.9
2022-08-21T15:24:24.967Z,22
2022-08-21T15:26:55.263Z,22
2022-08-21T15:29:34.419Z,22
2022-08-21T15:32:06.705Z,22
2022-08-21T15:34:39.194Z,22
2022-08-21T15:37:12.991Z,21.9
2022-08-21T15:39:54.963Z,22
2022-08-21T15:42:31.358Z,22
2022-08-21T15:45:04.426Z,22.1
2022-08-21T15:47:36.887Z,22
2022-08-21T15:50:09.621Z,22
2022-08-21T15:52:41.455Z,22.1
2022-08-21T15:55:13.713Z,22.2
2022-08-21T19:36:26.835Z,22.5
2022-08-21T19:38:54.962Z,22.6
2022-08-21T19:41:27.737Z,22.5
2022-08-21T19:44:03.430Z,22.4
2022-08-21T19:46:35.869Z,22.3
2022-08-21T19:49:11.509Z,22.2
2022-08-21T19:51:45.485Z,22.1
2022-08-21T19:54:18.272Z,22
2022-08-21T19:56:51.308Z,22
2022-08-21T19:59:25.541Z,22
2022-08-21T20:02:00.115Z,21.9
2022-08-21T20:04:33.269Z,21.9
